Terminal Aerodrome Forecast
Issued by NWS Omaha/Valley, NE

Home | Current Version | Previous Version | Text Only | Print | Product List | Glossary On
Versions: 1 2 3 4 5 6 7 8 9 10 11 12 13 14 15 16 17 18 19 20 21 22 23 24 25 26 27
000
FTUS43 KOAX 300538
TAFLNK
TAF
KLNK 300538Z 3006/0106 12008KT P6SM BKN120
     FM301300 14009KT 4SM TSRA BKN030CB
     FM301800 17015G25KT P6SM SCT050 BKN150 PROB30 3023/0103
      VRB25G35KT 2SM TSRA BKN030CB=

USA.gov is the U.S. government's official web portal to all federal, state and local government web resources and services.